Time;durP1;ratioP1;P1;durP2;ratioP2;P2;SDS_P1;SDS_P2;PMS_P1;PMS_P2;Temp;Humidity;BMP_temperature;BMP_pressure;BME280_temperature;BME280_humidity;BME280_pressure;Samples;Min_cycle;Max_cycle;Signal;HPM_P1;HPM_P2
2021/05/18 00:00:09;;;;;;;13.87;8.87;;;11.00;99.90;;;;;;4937150;29;20182;-76
2021/05/18 00:02:35;;;;;;;17.58;8.88;;;11.00;99.90;;;;;;4935746;29;20195;-75
2021/05/18 00:05:01;;;;;;;11.03;8.63;;;11.00;99.90;;;;;;4936444;29;20694;-76
2021/05/18 00:07:27;;;;;;;15.13;8.98;;;11.00;99.90;;;;;;4937098;29;20907;-77
2021/05/18 00:12:38;;;;;;;15.07;9.00;;;11.00;99.90;;;;;;4949454;29;20664;-76
2021/05/18 00:15:09;;;;;;;12.33;8.93;;;11.00;99.90;;;;;;4951143;29;20210;-75
2021/05/18 00:17:35;;;;;;;12.88;10.05;;;11.00;99.90;;;;;;4936642;29;20484;-76
2021/05/18 00:20:01;;;;;;;11.60;9.57;;;11.10;99.90;;;;;;4936609;29;20592;-76
2021/05/18 00:22:27;;;;;;;12.98;8.40;;;11.00;99.90;;;;;;4936689;29;20436;-76
2021/05/18 00:24:52;;;;;;;16.10;10.57;;;11.00;99.90;;;;;;4936233;29;20296;-76
2021/05/18 00:27:19;;;;;;;12.30;8.73;;;10.90;99.90;;;;;;4951339;29;20209;-75
2021/05/18 00:29:45;;;;;;;12.20;8.07;;;10.90;99.90;;;;;;4936597;29;20549;-77
2021/05/18 00:32:11;;;;;;;12.00;8.73;;;11.00;99.90;;;;;;4936684;29;20185;-77
2021/05/18 00:34:36;;;;;;;17.13;9.07;;;10.90;99.90;;;;;;4950935;29;20224;-76
2021/05/18 00:37:02;;;;;;;13.13;8.00;;;10.90;99.90;;;;;;4936667;29;20220;-75
2021/05/18 00:39:28;;;;;;;10.97;9.77;;;10.90;99.90;;;;;;4951126;29;20184;-78
2021/05/18 00:41:53;;;;;;;11.40;9.27;;;10.90;99.90;;;;;;4951143;29;20655;-77
2021/05/18 00:44:19;;;;;;;12.93;9.30;;;10.80;99.90;;;;;;4936083;29;20209;-75
2021/05/18 00:46:44;;;;;;;12.27;8.00;;;11.00;99.90;;;;;;4936335;29;20652;-76
2021/05/18 00:49:10;;;;;;;12.33;9.13;;;11.00;99.90;;;;;;4936247;29;20237;-76
2021/05/18 00:51:39;;;;;;;9.33;7.40;;;11.10;99.90;;;;;;4936043;29;20216;-75
2021/05/18 00:54:08;;;;;;;9.18;7.60;;;11.00;99.90;;;;;;4935761;29;20193;-76
2021/05/18 00:59:04;;;;;;;10.20;7.38;;;10.90;99.90;;;;;;4936369;29;20275;-76
2021/05/18 01:01:31;;;;;;;11.00;6.88;;;10.90;99.90;;;;;;4936176;29;20603;-77
2021/05/18 01:03:59;;;;;;;8.05;7.15;;;10.80;99.90;;;;;;4935933;29;20393;-77
2021/05/18 01:06:29;;;;;;;9.40;6.97;;;10.90;99.90;;;;;;4934808;29;20402;-77
2021/05/18 01:09:09;;;;;;;6.68;5.97;;;11.00;99.90;;;;;;4936263;29;20189;-75
2021/05/18 01:11:39;;;;;;;8.20;5.82;;;10.90;99.90;;;;;;4936005;29;20189;-76
2021/05/18 01:14:12;;;;;;;9.07;4.97;;;11.00;99.90;;;;;;4950416;29;20228;-77
2021/05/18 01:16:41;;;;;;;4.65;4.22;;;10.90;99.90;;;;;;4936575;29;20181;-76
2021/05/18 01:19:07;;;;;;;7.50;5.20;;;11.00;99.90;;;;;;4936018;29;20218;-77
2021/05/18 01:21:34;;;;;;;6.55;5.43;;;11.10;99.90;;;;;;4936193;29;20237;-77
2021/05/18 01:23:59;;;;;;;4.97;4.55;;;10.90;99.90;;;;;;4935547;29;20210;-77
2021/05/18 01:26:28;;;;;;;5.60;4.47;;;10.80;99.90;;;;;;4936338;29;20196;-75
2021/05/18 01:28:53;;;;;;;5.57;4.63;;;10.90;99.90;;;;;;4938749;29;20178;-75
2021/05/18 01:31:23;;;;;;;6.97;4.57;;;10.90;99.90;;;;;;4939829;29;20236;-75
2021/05/18 01:33:49;;;;;;;5.05;3.95;;;10.90;99.90;;;;;;4956399;29;20259;-75
2021/05/18 01:36:18;;;;;;;11.38;5.40;;;10.70;99.90;;;;;;4939593;29;20186;-75
2021/05/18 01:43:57;;;;;;;7.60;4.50;;;10.60;99.90;;;;;;4939154;29;20220;-75
2021/05/18 01:46:25;;;;;;;7.30;4.88;;;10.60;99.90;;;;;;4939273;29;20280;-75
2021/05/18 01:48:58;;;;;;;7.53;5.13;;;10.60;99.90;;;;;;4939247;29;20219;-75
2021/05/18 01:51:29;;;;;;;16.10;4.82;;;10.60;99.90;;;;;;4939283;29;20186;-75
2021/05/18 01:53:58;;;;;;;5.88;4.75;;;10.70;99.90;;;;;;4938573;29;20288;-75
2021/05/18 01:56:38;;;;;;;7.30;4.38;;;10.60;99.90;;;;;;4939189;29;20192;-75
2021/05/18 01:59:05;;;;;;;7.57;4.68;;;10.60;99.90;;;;;;4939118;29;20233;-76
2021/05/18 02:01:31;;;;;;;8.48;5.15;;;10.60;99.90;;;;;;4939057;29;20185;-76
2021/05/18 02:03:57;;;;;;;11.10;6.13;;;10.60;99.90;;;;;;4938575;29;20194;-77
2021/05/18 02:06:22;;;;;;;7.10;5.37;;;10.60;99.90;;;;;;4939158;29;20425;-75
2021/05/18 02:08:49;;;;;;;9.73;5.27;;;10.60;99.90;;;;;;4938964;29;20188;-76
2021/05/18 02:11:14;;;;;;;12.40;5.65;;;10.60;99.90;;;;;;4937715;29;20429;-75
2021/05/18 02:13:46;;;;;;;13.33;5.40;;;10.60;99.90;;;;;;4938534;29;20292;-75
2021/05/18 02:16:17;;;;;;;8.02;5.63;;;10.60;99.90;;;;;;4938856;29;20174;-76
2021/05/18 02:18:59;;;;;;;8.02;5.18;;;10.60;99.90;;;;;;4938850;29;20736;-76
2021/05/18 02:26:43;;;;;;;11.85;5.20;;;10.60;99.90;;;;;;4938761;29;20634;-76
2021/05/18 02:29:09;;;;;;;6.70;4.83;;;10.50;99.90;;;;;;4938599;29;20182;-76
2021/05/18 02:31:35;;;;;;;8.87;4.87;;;10.50;99.90;;;;;;4938782;29;20601;-76
2021/05/18 02:34:01;;;;;;;13.47;5.30;;;10.60;99.90;;;;;;4938250;29;20829;-77
2021/05/18 02:36:27;;;;;;;8.40;5.43;;;10.50;99.90;;;;;;4938346;29;20262;-76
2021/05/18 02:38:54;;;;;;;14.57;5.88;;;10.40;99.90;;;;;;4938274;29;20457;-76
2021/05/18 02:41:20;;;;;;;8.35;5.18;;;10.50;99.90;;;;;;4937456;29;20229;-75
2021/05/18 02:43:53;;;;;;;9.00;5.32;;;10.50;99.90;;;;;;4936759;29;20572;-76
2021/05/18 02:49:10;;;;;;;11.55;4.88;;;10.50;99.90;;;;;;4938368;29;20533;-77
2021/05/18 02:51:42;;;;;;;10.93;5.13;;;10.50;99.90;;;;;;4938407;29;20605;-76
2021/05/18 02:54:09;;;;;;;8.30;4.70;;;10.50;99.90;;;;;;4937721;29;20221;-75
2021/05/18 02:56:43;;;;;;;7.25;4.40;;;10.40;99.90;;;;;;4938033;29;20654;-75
2021/05/18 02:59:13;;;;;;;14.25;4.60;;;10.40;99.90;;;;;;4951958;29;20213;-76
2021/05/18 03:01:41;;;;;;;6.03;4.53;;;10.50;99.90;;;;;;4938169;29;20557;-77
2021/05/18 03:04:06;;;;;;;8.05;5.03;;;10.40;99.90;;;;;;4937540;29;20668;-77
2021/05/18 03:06:33;;;;;;;8.80;4.30;;;10.40;99.90;;;;;;4937845;29;20253;-75
2021/05/18 03:08:59;;;;;;;5.90;4.07;;;10.60;99.90;;;;;;4953117;29;20192;-76
2021/05/18 03:11:25;;;;;;;7.70;4.60;;;10.60;99.90;;;;;;4937965;29;20186;-76
2021/05/18 03:13:51;;;;;;;8.90;3.90;;;10.50;99.90;;;;;;4937564;29;20193;-77
2021/05/18 03:16:16;;;;;;;11.88;4.95;;;10.40;99.90;;;;;;4937815;29;20425;-75
2021/05/18 03:18:42;;;;;;;7.50;4.47;;;10.40;99.90;;;;;;4937472;29;20214;-77
2021/05/18 03:21:08;;;;;;;8.93;3.90;;;10.40;99.90;;;;;;4938006;29;20178;-77
2021/05/18 03:23:34;;;;;;;12.97;5.47;;;10.50;99.90;;;;;;4937307;29;20450;-76
2021/05/18 03:25:59;;;;;;;18.37;5.13;;;10.50;99.90;;;;;;4952560;29;20181;-77
2021/05/18 03:28:25;;;;;;;10.57;4.70;;;10.40;99.90;;;;;;4936467;29;20272;-76
2021/05/18 03:36:11;;;;;;;10.75;5.32;;;10.40;99.90;;;;;;4937864;29;20253;-75
2021/05/18 03:38:41;;;;;;;10.93;4.83;;;10.50;99.90;;;;;;4937281;29;20217;-76
2021/05/18 04:04:36;;;;;;;9.70;4.10;;;10.50;99.90;;;;;;4936846;29;20255;-76
2021/05/18 04:50:27;;;;;;;10.02;4.50;;;10.70;99.90;;;;;;4936468;29;20196;-75
2021/05/18 05:03:58;;;;;;;7.47;4.20;;;10.60;99.90;;;;;;4914657;29;20721;-77
2021/05/18 05:14:17;;;;;;;6.10;3.60;;;11.00;99.90;;;;;;4935626;29;20201;-76
2021/05/18 05:16:43;;;;;;;10.52;3.58;;;11.00;99.90;;;;;;4935955;29;20209;-76
2021/05/18 05:19:09;;;;;;;9.67;2.73;;;11.00;99.90;;;;;;4935776;29;20237;-76
2021/05/18 05:21:34;;;;;;;6.50;3.17;;;10.90;99.90;;;;;;4935805;29;20550;-76
2021/05/18 05:24:00;;;;;;;8.03;2.70;;;11.10;99.90;;;;;;4950351;29;20241;-76
2021/05/18 05:26:27;;;;;;;4.60;2.67;;;11.10;99.90;;;;;;4936077;29;20208;-76
2021/05/18 05:28:53;;;;;;;8.98;3.03;;;11.10;99.90;;;;;;4935149;29;20192;-77
2021/05/18 05:31:19;;;;;;;4.03;2.60;;;10.90;99.90;;;;;;4936490;29;20260;-75
2021/05/18 05:33:44;;;;;;;4.77;2.53;;;11.00;99.90;;;;;;4937819;29;20206;-75
2021/05/18 05:36:10;;;;;;;5.00;2.50;;;10.90;99.90;;;;;;4937574;29;20525;-74
2021/05/18 05:38:35;;;;;;;10.47;3.17;;;10.80;99.90;;;;;;4935684;29;20205;-75
2021/05/18 05:41:01;;;;;;;4.43;2.83;;;10.70;99.90;;;;;;4935827;29;20174;-75
2021/05/18 05:43:27;;;;;;;11.23;4.47;;;10.60;99.90;;;;;;4935466;29;20217;-77
2021/05/18 05:45:52;;;;;;;7.83;3.53;;;10.40;99.90;;;;;;4950573;29;20931;-76
2021/05/18 05:48:19;;;;;;;13.33;3.93;;;10.30;99.90;;;;;;4935686;29;20182;-76
2021/05/18 05:50:45;;;;;;;5.18;3.92;;;10.30;99.90;;;;;;4935729;29;20185;-75
2021/05/18 05:53:11;;;;;;;7.13;4.20;;;10.20;99.90;;;;;;4935513;29;20245;-76
2021/05/18 05:55:36;;;;;;;8.73;5.27;;;10.20;99.90;;;;;;4935642;29;20220;-77
2021/05/18 05:58:02;;;;;;;9.17;4.23;;;10.30;99.90;;;;;;4935641;29;20216;-75
2021/05/18 06:00:28;;;;;;;8.83;4.40;;;10.30;99.90;;;;;;4935475;29;20186;-77
2021/05/18 06:02:53;;;;;;;7.70;4.70;;;10.10;99.90;;;;;;4935453;29;20188;-77
2021/05/18 06:05:19;;;;;;;10.90;4.30;;;10.10;99.90;;;;;;4935960;29;20448;-77
2021/05/18 06:07:45;;;;;;;5.83;4.80;;;10.10;99.90;;;;;;4935629;29;20618;-77
2021/05/18 06:10:15;;;;;;;5.97;4.97;;;10.10;99.90;;;;;;4935563;29;20269;-78
2021/05/18 06:36:57;;;;;;;10.20;6.50;;;10.40;99.90;;;;;;4938815;29;20595;-76
2021/05/18 06:47:52;;;;;;;13.63;7.57;;;10.70;99.90;;;;;;4938982;29;20192;-76
2021/05/18 06:50:30;;;;;;;11.93;7.10;;;10.70;99.90;;;;;;4938286;29;20526;-77
2021/05/18 06:52:56;;;;;;;13.88;8.40;;;10.80;99.90;;;;;;4937999;29;20572;-78
2021/05/18 06:55:28;;;;;;;15.02;7.85;;;10.80;99.90;;;;;;4938189;29;20186;-76
2021/05/18 06:58:09;;;;;;;14.20;7.60;;;10.90;99.90;;;;;;4938133;29;20200;-77
2021/05/18 07:00:39;;;;;;;9.27;8.38;;;11.00;99.90;;;;;;4938053;29;20189;-77
2021/05/18 07:03:09;;;;;;;12.27;9.52;;;11.10;99.90;;;;;;4936598;29;20225;-76
2021/05/18 07:10:42;;;;;;;18.27;10.55;;;11.30;99.90;;;;;;4938031;29;20185;-75
2021/05/18 07:13:09;;;;;;;19.90;11.02;;;11.30;99.90;;;;;;4937503;29;20693;-76
2021/05/18 07:15:34;;;;;;;18.38;12.23;;;11.50;99.90;;;;;;4938003;29;20188;-75
2021/05/18 07:18:00;;;;;;;17.93;11.40;;;11.70;99.90;;;;;;4937731;29;20209;-75
2021/05/18 07:20:28;;;;;;;15.93;11.30;;;11.80;99.90;;;;;;4937683;29;20174;-75
2021/05/18 07:22:56;;;;;;;16.33;11.87;;;11.90;99.90;;;;;;4937362;29;20213;-75
2021/05/18 07:25:22;;;;;;;20.63;11.87;;;11.80;99.90;;;;;;4935943;29;20958;-75
2021/05/18 07:27:49;;;;;;;17.77;11.25;;;11.80;99.90;;;;;;4937205;29;20448;-75
2021/05/18 07:30:15;;;;;;;15.17;11.90;;;11.90;99.90;;;;;;4937510;29;20252;-75
2021/05/18 07:32:42;;;;;;;26.83;12.10;;;11.90;99.90;;;;;;4936265;29;20422;-77
2021/05/18 07:35:09;;;;;;;24.17;11.97;;;12.00;99.90;;;;;;4937495;29;20174;-76
2021/05/18 07:37:35;;;;;;;20.83;11.13;;;12.10;99.90;;;;;;4937411;29;20449;-75
2021/05/18 07:40:01;;;;;;;20.77;12.00;;;12.10;99.90;;;;;;4936140;29;20422;-76
2021/05/18 07:42:28;;;;;;;19.30;10.90;;;12.30;99.90;;;;;;4937338;29;20414;-76
2021/05/18 07:44:54;;;;;;;16.05;10.02;;;12.50;99.90;;;;;;4936829;29;20198;-76
2021/05/18 07:47:21;;;;;;;17.33;10.90;;;12.50;99.90;;;;;;4936131;29;20182;-76
2021/05/18 07:49:49;;;;;;;15.63;10.73;;;12.40;99.90;;;;;;4937133;29;20857;-76
2021/05/18 08:05:25;;;;;;;15.47;9.27;;;12.80;99.90;;;;;;4937212;29;20434;-76
2021/05/18 08:07:51;;;;;;;12.80;8.97;;;12.70;99.90;;;;;;4936826;29;20454;-75
2021/05/18 08:10:51;;;;;;;14.07;9.00;;;12.30;99.90;;;;;;4936796;29;20502;-75
2021/05/18 08:13:09;;;;;;;14.73;10.18;;;12.10;99.90;;;;;;4935136;29;20881;-76
2021/05/18 08:15:49;;;;;;;14.00;9.20;;;12.10;99.90;;;;;;4936781;29;20264;-75
2021/05/18 09:48:01;;;;;;;8.07;6.70;;;12.90;99.90;;;;;;4935884;29;20417;-76
2021/05/18 10:37:31;;;;;;;4.57;3.90;;;12.70;99.90;;;;;;4938420;29;20432;-77
2021/05/18 10:40:16;;;;;;;6.50;3.67;;;13.00;99.90;;;;;;4938442;29;20430;-77
2021/05/18 10:43:06;;;;;;;7.20;4.83;;;13.20;99.90;;;;;;4953005;29;20414;-77
2021/05/18 10:45:54;;;;;;;3.60;2.93;;;13.10;99.90;;;;;;4938214;29;20425;-77
2021/05/18 10:48:34;;;;;;;7.20;3.50;;;12.90;99.90;;;;;;4938300;29;20509;-77
2021/05/18 10:51:19;;;;;;;7.03;3.13;;;13.20;99.90;;;;;;4938411;29;20486;-77
2021/05/18 10:54:12;;;;;;;3.13;2.83;;;13.00;99.90;;;;;;4937820;29;20463;-77
2021/05/18 10:56:53;;;;;;;4.20;2.70;;;13.10;99.90;;;;;;4938250;29;20410;-78
2021/05/18 10:59:20;;;;;;;3.50;2.93;;;13.20;99.90;;;;;;4938152;29;20453;-78
2021/05/18 11:01:46;;;;;;;4.23;2.90;;;13.50;99.90;;;;;;4937074;29;20414;-78
2021/05/18 11:04:12;;;;;;;2.60;2.40;;;13.40;99.90;;;;;;4936251;29;20476;-75
2021/05/18 11:06:58;;;;;;;2.97;2.77;;;13.40;99.90;;;;;;4937830;29;20421;-78
2021/05/18 11:09:24;;;;;;;3.50;3.20;;;13.50;99.90;;;;;;4952219;29;20793;-78
2021/05/18 11:12:05;;;;;;;2.53;2.30;;;13.50;99.90;;;;;;4952656;29;20824;-77
2021/05/18 11:14:47;;;;;;;3.37;3.00;;;13.50;99.90;;;;;;4937360;29;20433;-77
2021/05/18 11:17:29;;;;;;;4.10;3.00;;;14.10;99.90;;;;;;4938183;29;20417;-77
2021/05/18 11:20:35;;;;;;;7.20;2.87;;;14.30;99.90;;;;;;4937982;29;20780;-78
2021/05/18 11:23:32;;;;;;;6.20;2.60;;;14.60;99.90;;;;;;4937497;29;20401;-78
2021/05/18 11:26:06;;;;;;;3.50;3.20;;;15.20;99.90;;;;;;4936742;29;20420;-78
2021/05/18 11:28:40;;;;;;;3.90;3.60;;;15.40;99.90;;;;;;4937446;29;20421;-77
2021/05/18 11:31:09;;;;;;;11.07;4.50;;;15.30;99.90;;;;;;4937584;29;20513;-78
2021/05/18 11:33:46;;;;;;;7.50;5.00;;;14.80;99.90;;;;;;4937143;29;20450;-77
2021/05/18 11:36:12;;;;;;;11.07;5.30;;;13.60;99.90;;;;;;4937531;29;20413;-78
2021/05/18 11:38:48;;;;;;;9.00;6.70;;;12.80;99.90;;;;;;4937284;29;20898;-78
2021/05/18 11:41:21;;;;;;;8.30;6.83;;;12.50;99.90;;;;;;4937729;29;20574;-78
2021/05/18 11:43:55;;;;;;;8.07;7.27;;;12.60;99.90;;;;;;4936861;29;20795;-77
2021/05/18 11:46:21;;;;;;;8.23;7.43;;;12.80;99.90;;;;;;4937285;29;20492;-78
2021/05/18 11:48:59;;;;;;;13.53;9.63;;;13.10;99.90;;;;;;4937086;29;20433;-78
2021/05/18 11:51:25;;;;;;;10.40;8.00;;;13.90;99.90;;;;;;4937227;29;20413;-76
2021/05/18 11:53:53;;;;;;;8.83;6.73;;;14.70;99.90;;;;;;4936570;29;20519;-78
2021/05/18 11:56:28;;;;;;;5.90;5.30;;;15.60;99.90;;;;;;4936943;29;20977;-76
2021/05/18 11:59:06;;;;;;;5.33;4.40;;;15.90;99.90;;;;;;4936983;29;20461;-76
2021/05/18 12:01:56;;;;;;;10.07;4.83;;;16.30;99.90;;;;;;4936971;29;20877;-76
2021/05/18 12:04:27;;;;;;;4.43;4.00;;;16.40;99.90;;;;;;4921959;29;20420;-77
2021/05/18 12:06:56;;;;;;;4.20;3.80;;;16.20;99.90;;;;;;4936774;29;20388;-76
2021/05/18 12:09:22;;;;;;;5.33;3.47;;;16.20;99.90;;;;;;4936760;29;20439;-76
2021/05/18 12:11:54;;;;;;;5.73;3.60;;;16.30;99.90;;;;;;4936461;29;20404;-77
2021/05/18 12:14:20;;;;;;;5.87;3.23;;;16.40;99.90;;;;;;4950962;29;20700;-77
2021/05/18 12:16:46;;;;;;;6.30;3.97;;;16.60;99.90;;;;;;4936576;29;20388;-78
2021/05/18 12:19:13;;;;;;;6.43;3.53;;;16.40;99.90;;;;;;4936520;29;20291;-77
2021/05/18 12:21:39;;;;;;;7.43;4.00;;;17.10;99.90;;;;;;4936622;29;20500;-77
2021/05/18 12:24:06;;;;;;;7.53;4.33;;;17.00;99.90;;;;;;4936059;29;20427;-77
2021/05/18 12:26:33;;;;;;;4.87;3.87;;;17.10;99.90;;;;;;4936492;29;20424;-77
2021/05/18 12:29:01;;;;;;;7.73;3.57;;;17.10;99.90;;;;;;4936365;29;20420;-77
2021/05/18 12:31:33;;;;;;;5.10;3.37;;;17.30;99.90;;;;;;4936297;29;20388;-76
2021/05/18 12:33:59;;;;;;;4.00;3.60;;;17.30;99.90;;;;;;4935952;29;20532;-77
2021/05/18 12:36:27;;;;;;;7.20;4.10;;;17.40;99.90;;;;;;4936378;29;20798;-76
2021/05/18 12:39:05;;;;;;;5.90;3.27;;;17.70;99.90;;;;;;4936164;29;20511;-78
2021/05/18 12:41:48;;;;;;;3.60;3.13;;;18.20;99.90;;;;;;4936329;29;20507;-77
2021/05/18 12:44:14;;;;;;;3.90;2.87;;;17.90;99.90;;;;;;4936080;29;20800;-77
2021/05/18 12:46:58;;;;;;;4.17;3.53;;;18.00;99.90;;;;;;4950951;29;20512;-77
2021/05/18 12:49:24;;;;;;;4.57;3.43;;;17.90;99.90;;;;;;4936128;29;20185;-77
2021/05/18 12:52:11;;;;;;;5.77;3.80;;;18.00;99.90;;;;;;4936132;29;20399;-77
2021/05/18 12:54:57;;;;;;;5.47;3.60;;;18.20;99.90;;;;;;4935524;29;20248;-77
2021/05/18 12:57:25;;;;;;;6.03;4.23;;;18.10;99.90;;;;;;4935986;29;20985;-77
2021/05/18 13:00:00;;;;;;;7.57;3.80;;;18.00;99.90;;;;;;4936144;29;20417;-77
2021/05/18 13:02:35;;;;;;;7.50;3.20;;;18.20;99.90;;;;;;4936066;29;20500;-77
2021/05/18 13:05:10;;;;;;;3.50;3.20;;;18.60;99.90;;;;;;4950183;29;20835;-77
2021/05/18 13:07:36;;;;;;;6.30;3.17;;;18.30;99.90;;;;;;4950494;29;20429;-77
2021/05/18 13:10:13;;;;;;;3.60;3.27;;;18.70;99.90;;;;;;4935925;29;20903;-77
2021/05/18 13:12:39;;;;;;;3.77;3.10;;;18.70;99.90;;;;;;4935872;29;20401;-77
2021/05/18 13:15:11;;;;;;;4.13;3.70;;;18.30;99.90;;;;;;4950206;29;20481;-78
2021/05/18 13:17:50;;;;;;;4.00;3.60;;;17.50;99.90;;;;;;4935814;29;20501;-77
2021/05/18 13:20:16;;;;;;;4.83;3.50;;;17.30;99.90;;;;;;4936023;29;20418;-78
2021/05/18 13:22:43;;;;;;;3.20;2.60;;;17.30;99.90;;;;;;4936059;29;20437;-77
2021/05/18 13:27:54;;;;;;;3.40;2.10;;;18.80;99.90;;;;;;4954480;29;20524;-77
2021/05/18 13:30:21;;;;;;;5.67;2.10;;;19.70;99.90;;;;;;4939841;29;20425;-77
2021/05/18 13:32:49;;;;;;;2.30;2.07;;;19.90;99.90;;;;;;4939369;29;20392;-77
2021/05/18 13:35:16;;;;;;;3.50;2.23;;;19.60;99.90;;;;;;4939410;29;20413;-77
2021/05/18 13:37:43;;;;;;;2.97;2.20;;;19.90;99.90;;;;;;4939541;29;20536;-77
2021/05/18 13:40:11;;;;;;;1.93;1.83;;;19.70;99.90;;;;;;4939660;29;20414;-78
2021/05/18 13:42:37;;;;;;;2.60;2.40;;;19.60;99.90;;;;;;4939242;29;20436;-77
2021/05/18 13:45:03;;;;;;;2.60;2.40;;;19.30;99.90;;;;;;4939175;29;20452;-77
2021/05/18 13:47:29;;;;;;;2.70;2.33;;;19.20;99.90;;;;;;4939434;29;20856;-78
2021/05/18 13:49:55;;;;;;;4.27;2.80;;;18.90;99.90;;;;;;4939560;29;20549;-77
2021/05/18 13:52:20;;;;;;;4.63;2.70;;;19.30;99.90;;;;;;4939414;29;20694;-77
2021/05/18 13:54:46;;;;;;;3.63;2.73;;;19.90;99.90;;;;;;4938848;29;20229;-78
2021/05/18 13:57:12;;;;;;;5.00;3.93;;;20.30;99.90;;;;;;4954045;29;20196;-78
2021/05/18 13:59:37;;;;;;;5.33;3.60;;;19.60;99.90;;;;;;4938900;29;20233;-77
2021/05/18 14:02:03;;;;;;;5.10;4.03;;;18.90;99.90;;;;;;4939048;29;20646;-77
2021/05/18 14:04:29;;;;;;;5.27;3.40;;;18.60;99.90;;;;;;4938640;29;20281;-76
2021/05/18 14:07:43;;;;;;;4.60;3.37;;;19.40;99.90;;;;;;4937714;29;20182;-78
2021/05/18 14:10:00;;;;;;;6.13;4.53;;;20.00;99.90;;;;;;4938528;29;20189;-77
2021/05/18 14:12:25;;;;;;;6.30;3.97;;;19.60;99.90;;;;;;4953639;29;20508;-78
2021/05/18 14:14:51;;;;;;;5.57;4.13;;;19.80;99.90;;;;;;4938632;29;20685;-77
2021/05/18 14:17:16;;;;;;;6.47;3.33;;;19.40;99.90;;;;;;4953644;29;20177;-77
2021/05/18 14:19:42;;;;;;;7.43;3.40;;;19.60;99.90;;;;;;4938614;29;20630;-79
2021/05/18 14:22:08;;;;;;;4.43;4.03;;;19.80;99.90;;;;;;4938942;29;20273;-75
2021/05/18 14:24:49;;;;;;;4.70;4.30;;;19.80;99.90;;;;;;4938332;29;20217;-77
2021/05/18 14:27:18;;;;;;;6.73;3.97;;;19.20;99.90;;;;;;4951584;29;20268;-77
2021/05/18 14:29:47;;;;;;;9.33;5.67;;;19.10;99.90;;;;;;4938536;29;20393;-76
2021/05/18 14:32:14;;;;;;;5.00;4.50;;;18.90;99.90;;;;;;4938636;29;20817;-77
2021/05/18 14:34:40;;;;;;;4.30;3.87;;;19.00;99.90;;;;;;4938069;29;20484;-76
2021/05/18 14:37:06;;;;;;;5.90;4.63;;;18.60;99.90;;;;;;4938626;29;20499;-77
2021/05/18 14:45:01;;;;;;;5.27;4.77;;;17.00;99.90;;;;;;4950826;29;20496;-76
2021/05/18 14:47:32;;;;;;;5.40;4.87;;;16.80;99.90;;;;;;4938504;29;20457;-76
2021/05/18 14:55:26;;;;;;;11.83;7.27;;;15.70;99.90;;;;;;4938129;29;20417;-75
2021/05/18 14:57:52;;;;;;;9.07;7.00;;;15.50;99.90;;;;;;4937858;29;20825;-75
2021/05/18 15:00:18;;;;;;;9.97;9.03;;;14.90;99.90;;;;;;4937884;29;20201;-76
2021/05/18 15:02:44;;;;;;;9.47;8.47;;;15.10;99.90;;;;;;4937733;29;20413;-76
2021/05/18 15:05:10;;;;;;;9.00;8.10;;;15.40;99.90;;;;;;4938057;29;20823;-76
2021/05/18 15:07:36;;;;;;;8.43;7.60;;;15.90;99.90;;;;;;4937923;29;20178;-76
2021/05/18 15:10:03;;;;;;;8.47;7.70;;;16.50;99.90;;;;;;4937721;29;20436;-76
2021/05/18 15:12:28;;;;;;;8.40;7.40;;;16.70;99.90;;;;;;4937771;29;20269;-76
2021/05/18 15:14:54;;;;;;;6.07;5.57;;;16.90;99.90;;;;;;4936127;29;20540;-77
2021/05/18 15:17:19;;;;;;;6.50;5.90;;;16.90;99.90;;;;;;4937820;29;20237;-78
2021/05/18 15:19:47;;;;;;;5.97;5.37;;;17.30;99.90;;;;;;4937514;29;20213;-77
2021/05/18 15:22:13;;;;;;;6.97;5.47;;;17.40;99.90;;;;;;4937638;29;20217;-78
2021/05/18 15:24:39;;;;;;;6.70;5.33;;;17.40;99.90;;;;;;4937322;29;21159;-77
2021/05/18 15:27:05;;;;;;;7.87;5.93;;;17.20;99.90;;;;;;4952338;29;20509;-77
2021/05/18 15:29:31;;;;;;;7.83;5.90;;;16.90;99.90;;;;;;4937486;29;20190;-77
2021/05/18 15:31:58;;;;;;;10.13;5.60;;;16.70;99.90;;;;;;4952120;29;20418;-77
2021/05/18 15:34:24;;;;;;;6.47;5.97;;;16.60;99.90;;;;;;4936913;29;20445;-77
2021/05/18 15:36:50;;;;;;;7.10;5.67;;;16.50;99.90;;;;;;4936318;29;20433;-77
2021/05/18 15:39:15;;;;;;;6.83;5.03;;;16.20;99.90;;;;;;4937346;29;20212;-77
2021/05/18 15:41:41;;;;;;;5.60;5.10;;;16.00;99.90;;;;;;4937298;29;20189;-77
2021/05/18 15:44:07;;;;;;;12.10;5.10;;;15.70;99.90;;;;;;4936820;29;20922;-77
2021/05/18 15:46:33;;;;;;;5.33;4.83;;;15.90;99.90;;;;;;4936780;29;20182;-77
2021/05/18 15:48:58;;;;;;;5.27;4.77;;;16.00;99.90;;;;;;4937074;29;20177;-77
2021/05/18 15:51:24;;;;;;;5.57;4.97;;;16.30;99.90;;;;;;4951887;29;20178;-77
2021/05/18 15:53:50;;;;;;;5.30;4.80;;;16.30;99.90;;;;;;4936696;29;20201;-77
2021/05/18 15:56:16;;;;;;;5.73;5.30;;;16.30;99.90;;;;;;4936858;29;20481;-77
2021/05/18 15:58:41;;;;;;;6.07;5.03;;;16.10;99.90;;;;;;4936959;29;20213;-78
2021/05/18 16:01:07;;;;;;;7.53;5.50;;;16.00;99.90;;;;;;4951774;29;20178;-78
2021/05/18 16:03:33;;;;;;;6.50;4.80;;;15.60;99.90;;;;;;4936579;29;20268;-78
2021/05/18 16:06:00;;;;;;;5.40;4.00;;;15.60;99.90;;;;;;4936897;29;20189;-78
2021/05/18 16:11:00;;;;;;;5.23;4.83;;;15.50;99.90;;;;;;4936864;29;20419;-77
2021/05/18 16:13:26;;;;;;;6.37;5.63;;;15.40;99.90;;;;;;4936361;29;20445;-77
2021/05/18 16:15:57;;;;;;;9.37;6.93;;;15.30;99.90;;;;;;4936819;29;20433;-79
2021/05/18 16:18:23;;;;;;;8.57;6.80;;;14.80;99.90;;;;;;4936526;29;20457;-77
2021/05/18 16:20:48;;;;;;;8.03;7.23;;;14.50;99.90;;;;;;4951074;29;20421;-79
2021/05/18 16:23:14;;;;;;;10.10;9.03;;;14.10;99.90;;;;;;4935604;29;20441;-78
2021/05/18 16:25:40;;;;;;;16.40;9.90;;;13.90;99.90;;;;;;4936465;29;20190;-77
2021/05/18 16:28:05;;;;;;;9.40;8.50;;;13.90;99.90;;;;;;4936505;29;20264;-77
2021/05/18 16:30:31;;;;;;;12.17;9.63;;;13.80;99.90;;;;;;4936334;29;20207;-77
2021/05/18 16:32:57;;;;;;;18.30;9.40;;;13.60;99.90;;;;;;4935821;29;20182;-78
2021/05/18 16:35:23;;;;;;;21.33;11.90;;;13.40;99.90;;;;;;4936252;29;20196;-77
2021/05/18 16:37:48;;;;;;;12.40;11.10;;;13.40;99.90;;;;;;4936153;29;20413;-76
2021/05/18 16:40:15;;;;;;;14.40;11.10;;;13.60;99.90;;;;;;4936489;29;20178;-78
2021/05/18 16:42:41;;;;;;;18.20;11.27;;;13.80;99.90;;;;;;4936075;29;20182;-76
2021/05/18 16:45:08;;;;;;;13.33;11.30;;;14.40;99.90;;;;;;4936100;29;20433;-78
2021/05/18 16:47:34;;;;;;;11.70;10.70;;;15.30;99.90;;;;;;4936208;29;20512;-78
2021/05/18 16:50:00;;;;;;;10.53;9.43;;;15.70;99.90;;;;;;4936273;29;20509;-77
2021/05/18 16:52:26;;;;;;;11.40;10.20;;;16.30;99.90;;;;;;4950869;29;20418;-79
2021/05/18 16:54:51;;;;;;;11.00;9.40;;;16.90;99.90;;;;;;4934273;29;20528;-79
2021/05/18 16:57:17;;;;;;;9.50;8.33;;;17.30;99.90;;;;;;4936134;29;20197;-79
2021/05/18 16:59:43;;;;;;;9.17;8.33;;;17.30;99.90;;;;;;4935235;29;21013;-76
2021/05/18 17:02:08;;;;;;;10.03;8.10;;;17.00;99.90;;;;;;4936048;29;20189;-81
2021/05/18 17:04:34;;;;;;;15.60;9.97;;;16.60;99.90;;;;;;4950397;29;20200;-77
2021/05/18 17:07:02;;;;;;;13.63;9.70;;;16.30;99.90;;;;;;4935711;29;20420;-77
2021/05/18 17:09:28;;;;;;;12.67;9.80;;;16.50;99.90;;;;;;4950695;29;20194;-76
2021/05/18 17:11:54;;;;;;;10.40;9.30;;;16.80;99.90;;;;;;4935864;29;20425;-76
2021/05/18 17:14:22;;;;;;;12.77;8.80;;;16.90;99.90;;;;;;4935525;29;20448;-76
2021/05/18 17:16:47;;;;;;;11.40;9.30;;;16.70;99.90;;;;;;4935854;29;20794;-76
2021/05/18 17:19:13;;;;;;;13.63;10.27;;;16.50;99.90;;;;;;4935472;29;20471;-78
2021/05/18 17:21:39;;;;;;;10.60;8.90;;;16.30;99.90;;;;;;4935833;29;20174;-77
2021/05/18 17:24:06;;;;;;;10.20;7.40;;;16.30;99.90;;;;;;4935287;29;20213;-76
2021/05/18 17:26:31;;;;;;;14.80;9.27;;;16.20;99.90;;;;;;4935764;29;20430;-76
2021/05/18 17:28:57;;;;;;;9.43;7.70;;;16.20;99.90;;;;;;4935730;29;20434;-76
2021/05/18 17:31:23;;;;;;;9.93;7.73;;;16.10;99.90;;;;;;4935625;29;20185;-77
2021/05/18 17:33:49;;;;;;;13.67;8.87;;;16.00;99.90;;;;;;4935405;29;20641;-78
2021/05/18 17:36:14;;;;;;;9.27;8.33;;;15.80;99.90;;;;;;4950619;29;20500;-77
2021/05/18 17:38:40;;;;;;;12.43;9.17;;;15.60;99.90;;;;;;4935756;29;20212;-76
2021/05/18 17:41:06;;;;;;;10.33;9.13;;;15.90;99.90;;;;;;4935857;29;20189;-78
2021/05/18 17:43:33;;;;;;;10.60;9.27;;;16.00;99.90;;;;;;4935202;29;20225;-77
2021/05/18 17:46:03;;;;;;;16.50;9.63;;;16.10;99.90;;;;;;4950248;29;20823;-77
2021/05/18 17:48:29;;;;;;;10.73;8.50;;;16.00;99.90;;;;;;4935626;29;20430;-77
2021/05/18 17:50:54;;;;;;;11.40;9.40;;;15.90;99.90;;;;;;4950558;29;20436;-77
2021/05/18 17:53:20;;;;;;;11.30;10.23;;;15.90;99.90;;;;;;4934855;29;20437;-77
2021/05/18 17:55:46;;;;;;;11.80;9.43;;;15.80;99.90;;;;;;4935352;29;20182;-76
2021/05/18 17:58:13;;;;;;;12.40;9.23;;;15.50;99.90;;;;;;4935431;29;20258;-76
2021/05/18 18:00:38;;;;;;;10.93;9.20;;;15.60;99.90;;;;;;4950539;29;20727;-77
2021/05/18 18:03:05;;;;;;;9.87;8.97;;;15.40;99.90;;;;;;4935093;29;20554;-77